CheckWX is a tool to help pilots better visualize weather data.  It is not intended as a substitute for an official pre-flight weather briefing.

09:51:37 UTC

LIPH TAF
Treviso-Sant'Angelo Airport
Treviso, Italy
TAF LIPH 200500Z 2006/2106 VRB05KT 2000 BR BKN010 BECMG 2009/2012 6000 BECMG 2016/2018 2000 BR BECMG 2100/2102 0200 FG BKN004

Feb-20@
06:00 UTC

Feb-20 @ 06:00 UTC

Feb-20@
09:00 UTC

Feb-20 @ 09:00 UTC

TAF LIPH 200500Z 2006/2106 VRB05KT 2000 BR BKN010

Expired

Wind
  • Variable at 5 KTS
Visibility
1,996 meters
Conditions
Mist
Cloud Levels
  • Broken at 1,000' AGL

Feb-20@
09:00 UTC

Feb-20 @ 09:00 UTC

Feb-20@
16:00 UTC

Feb-20 @ 16:00 UTC

BECMG 2009/2012 6000

Becoming

BecomingConditions expected by Wed, Feb 20, 2019 @ 12:00 UTC

Wind
  • Variable at 5 KTS
Visibility
6,003 meters
Conditions
Mist
Cloud Levels
  • Broken at 1,000' AGL

Feb-20@
16:00 UTC

Feb-20 @ 16:00 UTC

Feb-21@
00:00 UTC

Feb-21 @ 00:00 UTC

BECMG 2016/2018 2000 BR

Becoming

BecomingConditions expected by Wed, Feb 20, 2019 @ 18:00 UTC

Wind
  • Variable at 5 KTS
Visibility
1,996 meters
Conditions
Mist
Cloud Levels
  • Broken at 1,000' AGL

Feb-21@
00:00 UTC

Feb-21 @ 00:00 UTC

Feb-21@
06:00 UTC

Feb-21 @ 06:00 UTC

BECMG 2100/2102 0200 FG BKN004

Becoming

BecomingConditions expected by Thu, Feb 21, 2019 @ 02:00 UTC

Wind
  • Variable at 5 KTS
Visibility
193 meters
Conditions
Fog
Cloud Levels
  • Broken at 400' AGL